RYR18MJ ELLX-EGSS
Flight info
| Callsign | RYR18MJ |
|---|---|
| Flight time | 0h 50m |
| Altitude | 38000 |
| Route | LNO N852 TERLA L608 BUB M624 NIK DCT KOZUF DCT IMPOH DCT SASKI L608 SUMUM Y6 TOSVA |
| Aircraft | B738/M-SDE3FGILRWY/SB1 |
Departure
| Time | 2026-05-07 14:34 |
|---|---|
| Airport | Luxembourg-Findel International Airport (ELLX) |
Arrival
| Time | 2026-05-07 15:25 |
|---|---|
| Airport | London Stansted Airport (EGSS) |
| Time | Latitude | Longitude | Altitude | Speed | Heading |
|---|---|---|---|---|---|
| 2026-05-07 14:19 | 49.63163 | 6.21671 | 1228 ft | 0 kts | 239° |
| 2026-05-07 14:22 | 49.63156 | 6.21654 | 1229 ft | 6 kts | 239° |
| 2026-05-07 14:23 | 49.63141 | 6.21627 | 1229 ft | 0 kts | 193° |
| 2026-05-07 14:32 | 49.63129 | 6.21627 | 1229 ft | 11 kts | 171° |
| 2026-05-07 14:33 | 49.63023 | 6.21473 | 1227 ft | 37 kts | 242° |
| 2026-05-07 14:33 | 49.62832 | 6.21263 | 1228 ft | 35 kts | 210° |
| 2026-05-07 14:33 | 49.62652 | 6.21122 | 1226 ft | 20 kts | 151° |
| 2026-05-07 14:33 | 49.62690 | 6.21274 | 1222 ft | 33 kts | 60° |
| 2026-05-07 14:34 | 49.62971 | 6.22033 | 1211 ft | 126 kts | 60° |
| 2026-05-07 14:34 | 49.63514 | 6.23509 | 1476 ft | 177 kts | 62° |
| 2026-05-07 14:34 | 49.64061 | 6.25122 | 2390 ft | 169 kts | 60° |
| 2026-05-07 14:34 | 49.64728 | 6.26732 | 2739 ft | 189 kts | 53° |
| 2026-05-07 14:35 | 49.65518 | 6.28462 | 3075 ft | 207 kts | 54° |
| 2026-05-07 14:35 | 49.66391 | 6.30249 | 3750 ft | 208 kts | 47° |
| 2026-05-07 14:35 | 49.67410 | 6.31860 | 4273 ft | 217 kts | 44° |
| 2026-05-07 14:35 | 49.68485 | 6.33578 | 4733 ft | 229 kts | 46° |
| 2026-05-07 14:36 | 49.69498 | 6.35379 | 5576 ft | 223 kts | 51° |
| 2026-05-07 14:36 | 49.70470 | 6.37418 | 5761 ft | 248 kts | 46° |
| 2026-05-07 14:36 | 49.71904 | 6.38892 | 6209 ft | 259 kts | 14° |
| 2026-05-07 14:36 | 49.73700 | 6.38858 | 6726 ft | 267 kts | 340° |
| 2026-05-07 14:37 | 49.75228 | 6.37206 | 7341 ft | 273 kts | 307° |
| 2026-05-07 14:37 | 49.76908 | 6.31953 | 8775 ft | 279 kts | 297° |
| 2026-05-07 14:37 | 49.77900 | 6.29380 | 9489 ft | 283 kts | 303° |
| 2026-05-07 14:38 | 49.79055 | 6.26910 | 10339 ft | 283 kts | 306° |
| 2026-05-07 14:38 | 49.80248 | 6.24588 | 11186 ft | 282 kts | 309° |
| 2026-05-07 14:38 | 49.81567 | 6.22215 | 11633 ft | 298 kts | 310° |
| 2026-05-07 14:38 | 49.82924 | 6.19702 | 12026 ft | 314 kts | 308° |
| 2026-05-07 14:39 | 49.84305 | 6.17044 | 12783 ft | 319 kts | 308° |
| 2026-05-07 14:39 | 49.85671 | 6.14328 | 13240 ft | 333 kts | 307° |
| 2026-05-07 14:39 | 49.87142 | 6.11416 | 13711 ft | 346 kts | 308° |
| 2026-05-07 14:39 | 49.88606 | 6.08608 | 14898 ft | 336 kts | 308° |
| 2026-05-07 14:40 | 49.90076 | 6.05843 | 15812 ft | 335 kts | 312° |
| 2026-05-07 14:40 | 49.91839 | 6.03544 | 16738 ft | 333 kts | 328° |
| 2026-05-07 14:40 | 49.94014 | 6.02176 | 17328 ft | 343 kts | 346° |
| 2026-05-07 14:40 | 49.96431 | 6.01972 | 17592 ft | 363 kts | 4° |
| 2026-05-07 14:41 | 49.98940 | 6.02614 | 18287 ft | 367 kts | 12° |
| 2026-05-07 14:41 | 50.01368 | 6.03318 | 19491 ft | 353 kts | 5° |
| 2026-05-07 14:41 | 50.03798 | 6.03312 | 20304 ft | 350 kts | 349° |
| 2026-05-07 14:41 | 50.06169 | 6.02306 | 20513 ft | 365 kts | 340° |
| 2026-05-07 14:42 | 50.08576 | 6.00927 | 21066 ft | 370 kts | 338° |
| 2026-05-07 14:42 | 50.10960 | 5.99466 | 21431 ft | 380 kts | 336° |
| 2026-05-07 14:42 | 50.13423 | 5.97856 | 21946 ft | 387 kts | 336° |
| 2026-05-07 14:42 | 50.15927 | 5.96226 | 22513 ft | 391 kts | 336° |
| 2026-05-07 14:43 | 50.18444 | 5.94632 | 23085 ft | 396 kts | 337° |
| 2026-05-07 14:43 | 50.21016 | 5.93053 | 23683 ft | 399 kts | 337° |
| 2026-05-07 14:43 | 50.23610 | 5.91497 | 24261 ft | 403 kts | 338° |
| 2026-05-07 14:43 | 50.26217 | 5.89958 | 24838 ft | 406 kts | 338° |
| 2026-05-07 14:44 | 50.28870 | 5.88406 | 25413 ft | 408 kts | 338° |
| 2026-05-07 14:44 | 50.31517 | 5.86863 | 25951 ft | 412 kts | 338° |
| 2026-05-07 14:44 | 50.34194 | 5.85305 | 26486 ft | 414 kts | 338° |
| 2026-05-07 14:44 | 50.36923 | 5.83717 | 26998 ft | 417 kts | 338° |
| 2026-05-07 14:45 | 50.39637 | 5.82137 | 27485 ft | 420 kts | 338° |
| 2026-05-07 14:45 | 50.42355 | 5.80551 | 27972 ft | 423 kts | 338° |
| 2026-05-07 14:45 | 50.45113 | 5.78941 | 28444 ft | 426 kts | 338° |
| 2026-05-07 14:45 | 50.47905 | 5.77307 | 28916 ft | 429 kts | 338° |
| 2026-05-07 14:46 | 50.50693 | 5.75675 | 29400 ft | 431 kts | 338° |
| 2026-05-07 14:46 | 50.53540 | 5.74005 | 29860 ft | 433 kts | 338° |
| 2026-05-07 14:46 | 50.56348 | 5.72357 | 30412 ft | 433 kts | 338° |
| 2026-05-07 14:46 | 50.59143 | 5.70703 | 31106 ft | 428 kts | 337° |
| 2026-05-07 14:47 | 50.61857 | 5.68902 | 31623 ft | 427 kts | 334° |
| 2026-05-07 14:47 | 50.64463 | 5.66781 | 32168 ft | 423 kts | 328° |
| 2026-05-07 14:47 | 50.66914 | 5.64194 | 32684 ft | 420 kts | 321° |
| 2026-05-07 14:47 | 50.69138 | 5.61201 | 33135 ft | 418 kts | 315° |
| 2026-05-07 14:48 | 50.71096 | 5.57862 | 33595 ft | 416 kts | 308° |
| 2026-05-07 14:48 | 50.72790 | 5.54181 | 34046 ft | 413 kts | 301° |
| 2026-05-07 14:48 | 50.74172 | 5.50278 | 34442 ft | 412 kts | 295° |
| 2026-05-07 14:48 | 50.75257 | 5.46111 | 34820 ft | 410 kts | 288° |
| 2026-05-07 14:49 | 50.76005 | 5.41845 | 35144 ft | 408 kts | 282° |
| 2026-05-07 14:49 | 50.76436 | 5.37419 | 35400 ft | 408 kts | 276° |
| 2026-05-07 14:49 | 50.76672 | 5.32970 | 35672 ft | 408 kts | 274° |
| 2026-05-07 14:49 | 50.76947 | 5.28534 | 35915 ft | 408 kts | 276° |
| 2026-05-07 14:50 | 50.77364 | 5.24122 | 36028 ft | 411 kts | 279° |
| 2026-05-07 14:50 | 50.77937 | 5.19705 | 36041 ft | 412 kts | 282° |
| 2026-05-07 14:50 | 50.79394 | 5.11022 | 36040 ft | 409 kts | 285° |
| 2026-05-07 14:51 | 50.81039 | 5.02402 | 36034 ft | 411 kts | 286° |
| 2026-05-07 14:51 | 50.82695 | 4.93802 | 36034 ft | 411 kts | 286° |
| 2026-05-07 14:52 | 50.84342 | 4.85167 | 36037 ft | 411 kts | 285° |
| 2026-05-07 14:52 | 50.85974 | 4.76552 | 36035 ft | 411 kts | 286° |
| 2026-05-07 14:53 | 50.87604 | 4.67902 | 36039 ft | 410 kts | 286° |
| 2026-05-07 14:53 | 50.89299 | 4.59323 | 36036 ft | 411 kts | 290° |
| 2026-05-07 14:54 | 50.92169 | 4.51542 | 36045 ft | 416 kts | 310° |
| 2026-05-07 14:54 | 50.96372 | 4.45246 | 36041 ft | 418 kts | 318° |
| 2026-05-07 14:55 | 51.00837 | 4.39325 | 36042 ft | 418 kts | 319° |
| 2026-05-07 14:55 | 51.05294 | 4.33456 | 36043 ft | 419 kts | 318° |
| 2026-05-07 14:56 | 51.09749 | 4.27520 | 36044 ft | 418 kts | 318° |
| 2026-05-07 14:56 | 51.14109 | 4.21523 | 36041 ft | 417 kts | 315° |
| 2026-05-07 14:57 | 51.17869 | 4.14562 | 36034 ft | 416 kts | 302° |
| 2026-05-07 14:57 | 51.20870 | 4.06763 | 36038 ft | 416 kts | 298° |
| 2026-05-07 14:58 | 51.23688 | 3.98739 | 36042 ft | 416 kts | 298° |
| 2026-05-07 14:58 | 51.26508 | 3.90659 | 36040 ft | 416 kts | 298° |
| 2026-05-07 14:59 | 51.29308 | 3.82699 | 36046 ft | 416 kts | 298° |
| 2026-05-07 14:59 | 51.32159 | 3.74627 | 36048 ft | 416 kts | 298° |
| 2026-05-07 15:00 | 51.34833 | 3.66498 | 36043 ft | 415 kts | 292° |
| 2026-05-07 15:00 | 51.36773 | 3.57837 | 36043 ft | 414 kts | 286° |
| 2026-05-07 15:01 | 51.38349 | 3.48966 | 35804 ft | 415 kts | 284° |
| 2026-05-07 15:01 | 51.39039 | 3.44514 | 35601 ft | 411 kts | 282° |
| 2026-05-07 15:01 | 51.39625 | 3.40094 | 35399 ft | 407 kts | 281° |
| 2026-05-07 15:02 | 51.40166 | 3.35664 | 35198 ft | 406 kts | 280° |
| 2026-05-07 15:02 | 51.40690 | 3.31251 | 34996 ft | 405 kts | 279° |
| 2026-05-07 15:02 | 51.41219 | 3.26821 | 34783 ft | 404 kts | 279° |
| 2026-05-07 15:02 | 51.41751 | 3.22416 | 34541 ft | 402 kts | 280° |
| 2026-05-07 15:03 | 51.42283 | 3.18067 | 34292 ft | 400 kts | 280° |
| 2026-05-07 15:03 | 51.42823 | 3.13690 | 34055 ft | 409 kts | 280° |
| 2026-05-07 15:03 | 51.43385 | 3.09154 | 33809 ft | 423 kts | 280° |
| 2026-05-07 15:03 | 51.43966 | 3.04477 | 33562 ft | 437 kts | 280° |
| 2026-05-07 15:04 | 51.44562 | 2.99676 | 33315 ft | 446 kts | 280° |
| 2026-05-07 15:04 | 51.45170 | 2.94778 | 33056 ft | 444 kts | 280° |
| 2026-05-07 15:04 | 51.45765 | 2.89983 | 32805 ft | 438 kts | 280° |
| 2026-05-07 15:04 | 51.46353 | 2.85236 | 32550 ft | 436 kts | 280° |
| 2026-05-07 15:05 | 51.46934 | 2.80522 | 32306 ft | 434 kts | 280° |
| 2026-05-07 15:05 | 51.47521 | 2.75746 | 32056 ft | 435 kts | 280° |
| 2026-05-07 15:05 | 51.48098 | 2.71037 | 31807 ft | 433 kts | 280° |
| 2026-05-07 15:05 | 51.48668 | 2.66363 | 31558 ft | 430 kts | 280° |
| 2026-05-07 15:06 | 51.49240 | 2.61654 | 31310 ft | 429 kts | 280° |
| 2026-05-07 15:06 | 51.49811 | 2.56935 | 31058 ft | 427 kts | 280° |
| 2026-05-07 15:06 | 51.50366 | 2.52338 | 30614 ft | 422 kts | 280° |
| 2026-05-07 15:06 | 51.50919 | 2.47732 | 29990 ft | 419 kts | 280° |
| 2026-05-07 15:07 | 51.51459 | 2.43228 | 29397 ft | 417 kts | 280° |
| 2026-05-07 15:07 | 51.52003 | 2.38669 | 28790 ft | 414 kts | 280° |
| 2026-05-07 15:07 | 51.52538 | 2.34164 | 28211 ft | 410 kts | 279° |
| 2026-05-07 15:07 | 51.53061 | 2.29748 | 27665 ft | 407 kts | 279° |
| 2026-05-07 15:08 | 51.53588 | 2.25287 | 27108 ft | 403 kts | 279° |
| 2026-05-07 15:08 | 51.54103 | 2.20907 | 26559 ft | 399 kts | 279° |
| 2026-05-07 15:08 | 51.54612 | 2.16570 | 26002 ft | 396 kts | 279° |
| 2026-05-07 15:08 | 51.55116 | 2.12253 | 25423 ft | 393 kts | 279° |
| 2026-05-07 15:09 | 51.55611 | 2.08010 | 24898 ft | 389 kts | 279° |
| 2026-05-07 15:09 | 51.56110 | 2.03713 | 24327 ft | 386 kts | 279° |
| 2026-05-07 15:09 | 51.56591 | 1.99558 | 23803 ft | 383 kts | 279° |
| 2026-05-07 15:09 | 51.57075 | 1.95361 | 23221 ft | 381 kts | 279° |
| 2026-05-07 15:10 | 51.57554 | 1.91188 | 22358 ft | 387 kts | 279° |
| 2026-05-07 15:10 | 51.58048 | 1.86875 | 21872 ft | 398 kts | 279° |
| 2026-05-07 15:10 | 51.58556 | 1.82411 | 21401 ft | 420 kts | 279° |
| 2026-05-07 15:10 | 51.59081 | 1.77788 | 20885 ft | 422 kts | 279° |
| 2026-05-07 15:11 | 51.59606 | 1.73161 | 20362 ft | 418 kts | 279° |
| 2026-05-07 15:11 | 51.60118 | 1.68636 | 19851 ft | 414 kts | 279° |
| 2026-05-07 15:11 | 51.60625 | 1.64144 | 19343 ft | 412 kts | 279° |
| 2026-05-07 15:11 | 51.61133 | 1.59621 | 18838 ft | 409 kts | 280° |
| 2026-05-07 15:12 | 51.61630 | 1.55174 | 18508 ft | 406 kts | 280° |
| 2026-05-07 15:12 | 51.62132 | 1.50662 | 18070 ft | 407 kts | 280° |
| 2026-05-07 15:12 | 51.62624 | 1.46229 | 17573 ft | 405 kts | 280° |
| 2026-05-07 15:12 | 51.63110 | 1.41829 | 17070 ft | 401 kts | 280° |
| 2026-05-07 15:13 | 51.63597 | 1.37413 | 16566 ft | 399 kts | 280° |
| 2026-05-07 15:13 | 51.64076 | 1.33049 | 16067 ft | 397 kts | 279° |
| 2026-05-07 15:13 | 51.64550 | 1.28715 | 15564 ft | 394 kts | 279° |
| 2026-05-07 15:13 | 51.65022 | 1.24384 | 15066 ft | 392 kts | 279° |
| 2026-05-07 15:14 | 51.65485 | 1.20112 | 14572 ft | 390 kts | 279° |
| 2026-05-07 15:14 | 51.65948 | 1.15836 | 14081 ft | 388 kts | 279° |
| 2026-05-07 15:14 | 51.66410 | 1.11556 | 13583 ft | 386 kts | 279° |
| 2026-05-07 15:14 | 51.66859 | 1.07369 | 13100 ft | 383 kts | 279° |
| 2026-05-07 15:15 | 51.67307 | 1.03187 | 12683 ft | 377 kts | 279° |
| 2026-05-07 15:15 | 51.67749 | 0.99055 | 12298 ft | 367 kts | 279° |
| 2026-05-07 15:15 | 51.68173 | 0.95070 | 11918 ft | 358 kts | 279° |
| 2026-05-07 15:15 | 51.68580 | 0.91224 | 11545 ft | 350 kts | 279° |
| 2026-05-07 15:16 | 51.68984 | 0.87401 | 11164 ft | 342 kts | 279° |
| 2026-05-07 15:16 | 51.69376 | 0.83671 | 10788 ft | 335 kts | 279° |
| 2026-05-07 15:16 | 51.69760 | 0.80009 | 10410 ft | 329 kts | 279° |
| 2026-05-07 15:16 | 51.70135 | 0.76424 | 10031 ft | 324 kts | 279° |
| 2026-05-07 15:17 | 51.70504 | 0.72887 | 9658 ft | 319 kts | 279° |
| 2026-05-07 15:17 | 51.70869 | 0.69388 | 9278 ft | 314 kts | 279° |
| 2026-05-07 15:17 | 51.71221 | 0.65986 | 8908 ft | 309 kts | 279° |
| 2026-05-07 15:17 | 51.71573 | 0.62577 | 8529 ft | 305 kts | 279° |
| 2026-05-07 15:18 | 51.71915 | 0.59259 | 8151 ft | 301 kts | 279° |
| 2026-05-07 15:18 | 51.72257 | 0.55933 | 7767 ft | 298 kts | 279° |
| 2026-05-07 15:18 | 51.72591 | 0.52671 | 7394 ft | 295 kts | 279° |
| 2026-05-07 15:18 | 51.72919 | 0.49466 | 7013 ft | 292 kts | 279° |
| 2026-05-07 15:19 | 51.73246 | 0.46253 | 6629 ft | 289 kts | 279° |
| 2026-05-07 15:19 | 51.73568 | 0.43084 | 6249 ft | 287 kts | 279° |
| 2026-05-07 15:19 | 51.73890 | 0.39909 | 5870 ft | 285 kts | 279° |
| 2026-05-07 15:19 | 51.74206 | 0.36786 | 5487 ft | 283 kts | 279° |
| 2026-05-07 15:20 | 51.74520 | 0.33671 | 5104 ft | 281 kts | 278° |
| 2026-05-07 15:20 | 51.74830 | 0.30588 | 4727 ft | 279 kts | 278° |
| 2026-05-07 15:20 | 51.75139 | 0.27505 | 4350 ft | 278 kts | 278° |
| 2026-05-07 15:20 | 51.75442 | 0.24470 | 3947 ft | 274 kts | 278° |
| 2026-05-07 15:21 | 51.75734 | 0.21539 | 3695 ft | 259 kts | 278° |
| 2026-05-07 15:21 | 51.76013 | 0.18741 | 3443 ft | 246 kts | 278° |
| 2026-05-07 15:21 | 51.76285 | 0.16090 | 3203 ft | 236 kts | 281° |
| 2026-05-07 15:21 | 51.76764 | 0.13587 | 2980 ft | 230 kts | 297° |
| 2026-05-07 15:22 | 51.77844 | 0.11821 | 2727 ft | 221 kts | 335° |
| 2026-05-07 15:22 | 51.79307 | 0.11435 | 2493 ft | 211 kts | 8° |
| 2026-05-07 15:22 | 51.80659 | 0.12089 | 2269 ft | 203 kts | 28° |
| 2026-05-07 15:22 | 51.81797 | 0.13386 | 1959 ft | 199 kts | 44° |
| 2026-05-07 15:23 | 51.82775 | 0.14942 | 1686 ft | 194 kts | 47° |
| 2026-05-07 15:23 | 51.83709 | 0.16356 | 1431 ft | 179 kts | 44° |
| 2026-05-07 15:23 | 51.84602 | 0.17641 | 1239 ft | 160 kts | 45° |
| 2026-05-07 15:23 | 51.85393 | 0.18849 | 975 ft | 153 kts | 46° |
| 2026-05-07 15:24 | 51.86160 | 0.19963 | 773 ft | 146 kts | 45° |
| 2026-05-07 15:24 | 51.86895 | 0.21071 | 540 ft | 145 kts | 45° |
| 2026-05-07 15:24 | 51.87635 | 0.22174 | 385 ft | 144 kts | 45° |
| 2026-05-07 15:24 | 51.88338 | 0.23237 | 343 ft | 123 kts | 43° |
| 2026-05-07 15:25 | 51.88829 | 0.23974 | 336 ft | 70 kts | 43° |
| 2026-05-07 15:25 | 51.89076 | 0.24416 | 338 ft | 45 kts | 67° |
| 2026-05-07 15:25 | 51.89167 | 0.24813 | 340 ft | 24 kts | 89° |
| 2026-05-07 15:25 | 51.89214 | 0.25028 | 341 ft | 20 kts | 52° |
| 2026-05-07 15:26 | 51.89210 | 0.25223 | 341 ft | 18 kts | 123° |
| 2026-05-07 15:26 | 51.89244 | 0.25386 | 341 ft | 15 kts | 33° |
| 2026-05-07 15:26 | 51.89328 | 0.25495 | 343 ft | 15 kts | 44° |
| 2026-05-07 15:26 | 51.89310 | 0.25623 | 343 ft | 11 kts | 135° |
| 2026-05-07 15:27 | 51.89263 | 0.25698 | 342 ft | 8 kts | 155° |
| 2026-05-07 15:27 | 51.89219 | 0.25655 | 341 ft | 2 kts | 223° |
| 2026-05-07 15:27 | 51.89218 | 0.25655 | 341 ft | 0 kts | 223° |